Time;durP1;ratioP1;P1;durP2;ratioP2;P2;SDS_P1;SDS_P2;PMS_P1;PMS_P2;Temp;Humidity;BMP_temperature;BMP_pressure;BME280_temperature;BME280_humidity;BME280_pressure;Samples;Min_cycle;Max_cycle;Signal;HPM_P1;HPM_P2
2021/07/28 00:00:55;;;;;;;19.83;9.63;;;;;;;26.69;41.86;95432.50;5025910;28;20279;-63
2021/07/28 00:03:22;;;;;;;16.00;9.47;;;;;;;26.67;41.46;95430.13;5033220;28;20220;-64
2021/07/28 00:05:50;;;;;;;20.60;9.07;;;;;;;26.46;41.82;95434.91;5020178;28;20197;-63
2021/07/28 00:08:20;;;;;;;22.53;9.70;;;;;;;26.34;42.00;95432.28;5027573;28;20190;-64
2021/07/28 00:10:47;;;;;;;17.07;9.00;;;;;;;26.28;42.19;95438.22;5024827;28;20380;-64
2021/07/28 00:13:14;;;;;;;16.77;9.30;;;;;;;26.29;42.02;95435.22;5028831;28;20664;-64
2021/07/28 00:15:41;;;;;;;19.03;9.63;;;;;;;26.46;42.26;95431.47;5012863;28;20591;-64
2021/07/28 00:18:15;;;;;;;21.17;9.73;;;;;;;26.55;41.91;95426.72;5029153;28;20583;-64
2021/07/28 00:23:16;;;;;;;17.43;9.43;;;;;;;26.42;42.26;95428.66;5012729;28;20196;-63
2021/07/28 00:25:49;;;;;;;15.77;9.47;;;;;;;26.48;42.01;95421.91;5021102;28;20197;-64
2021/07/28 00:28:15;;;;;;;18.80;9.00;;;;;;;26.45;42.28;95440.63;5032790;28;20233;-63
2021/07/28 00:30:43;;;;;;;15.00;8.87;;;;;;;26.42;42.19;95439.41;5032609;28;20201;-64
2021/07/28 00:33:11;;;;;;;19.23;9.97;;;;;;;26.51;42.21;95432.00;5032415;28;20219;-63
2021/07/28 00:35:38;;;;;;;19.27;9.07;;;;;;;26.36;42.00;95421.97;5033073;28;20193;-64
2021/07/28 00:38:06;;;;;;;21.43;9.50;;;;;;;26.26;42.64;95430.50;5032599;28;20212;-63
2021/07/28 00:40:34;;;;;;;21.97;9.93;;;;;;;26.33;42.49;95432.63;5032432;28;20231;-63
2021/07/28 00:43:29;;;;;;;21.20;9.43;;;;;;;26.31;42.65;95430.28;5032281;28;20233;-64
2021/07/28 00:45:56;;;;;;;21.13;9.87;;;;;;;26.20;42.86;95436.47;5031803;28;20201;-65
2021/07/28 00:48:23;;;;;;;13.03;8.53;;;;;;;26.31;42.93;95432.97;5032171;28;20296;-65
2021/07/28 00:50:50;;;;;;;16.33;9.47;;;;;;;26.29;43.36;95427.16;5031188;28;20213;-65
2021/07/28 00:53:20;;;;;;;15.67;9.03;;;;;;;26.22;43.23;95423.50;5012456;28;20231;-64
2021/07/28 00:55:48;;;;;;;17.63;8.83;;;;;;;26.29;43.00;95424.47;5025756;28;20311;-66
2021/07/28 00:58:17;;;;;;;18.67;9.13;;;;;;;26.27;43.40;95415.97;5032660;28;20196;-65
2021/07/28 01:00:45;;;;;;;16.13;8.97;;;;;;;26.19;43.88;95430.31;5031860;28;20221;-64
2021/07/28 01:03:13;;;;;;;17.57;9.80;;;;;;;26.16;43.42;95425.63;5026555;28;20198;-64
2021/07/28 01:05:41;;;;;;;20.43;9.13;;;;;;;26.13;44.02;95430.91;5023446;28;20205;-64
2021/07/28 01:08:09;;;;;;;19.17;10.00;;;;;;;26.14;44.10;95411.75;5013958;28;20592;-64
2021/07/28 01:10:37;;;;;;;16.60;9.67;;;;;;;26.11;44.59;95415.13;5021683;28;20681;-65
2021/07/28 01:13:06;;;;;;;16.77;9.40;;;;;;;26.17;44.02;95413.00;5032145;28;20201;-65
2021/07/28 01:15:40;;;;;;;18.77;9.87;;;;;;;26.29;43.42;95415.63;5031535;28;20199;-65
2021/07/28 01:18:13;;;;;;;21.30;9.60;;;;;;;26.34;43.44;95410.00;5031468;28;20196;-65
2021/07/28 01:20:46;;;;;;;17.50;9.83;;;;;;;26.29;44.05;95413.72;5031521;28;20229;-65
2021/07/28 01:23:19;;;;;;;21.63;9.93;;;;;;;26.23;44.13;95407.03;5031269;28;20197;-64
2021/07/28 01:25:46;;;;;;;21.37;11.33;;;;;;;26.01;44.53;95413.66;5031471;28;20675;-65
2021/07/28 01:28:14;;;;;;;22.73;10.70;;;;;;;25.99;45.15;95415.13;5031556;28;20567;-66
2021/07/28 01:30:42;;;;;;;19.20;10.53;;;;;;;26.00;45.27;95400.59;5031663;28;20669;-64
2021/07/28 01:33:09;;;;;;;23.43;11.53;;;;;;;25.94;45.30;95408.09;5031831;28;20197;-64
2021/07/28 01:35:39;;;;;;;25.20;11.90;;;;;;;25.91;45.29;95391.88;5031599;28;20239;-65
2021/07/28 01:38:06;;;;;;;18.90;11.87;;;;;;;25.87;45.72;95401.72;5031292;28;20247;-63
2021/07/28 01:40:39;;;;;;;19.80;11.07;;;;;;;25.80;45.36;95407.66;5031278;28;20217;-65
2021/07/28 01:43:16;;;;;;;17.83;11.37;;;;;;;25.88;45.42;95411.34;5030693;28;20726;-66
2021/07/28 01:45:43;;;;;;;17.47;10.10;;;;;;;25.93;44.10;95416.47;5031068;28;20200;-64
2021/07/28 01:48:10;;;;;;;18.13;10.30;;;;;;;25.89;44.08;95410.25;5030868;28;20193;-64
2021/07/28 01:50:37;;;;;;;16.17;9.80;;;;;;;25.84;43.10;95413.13;5024554;28;20195;-64
2021/07/28 01:53:05;;;;;;;20.10;9.77;;;;;;;25.94;43.38;95412.69;5025658;28;20194;-64
2021/07/28 01:55:32;;;;;;;20.57;10.10;;;;;;;25.81;43.34;95414.63;5022975;28;20201;-64
2021/07/28 01:57:59;;;;;;;23.77;10.60;;;;;;;25.73;43.03;95406.69;5026739;28;20240;-64
2021/07/28 02:00:27;;;;;;;16.87;9.37;;;;;;;25.87;43.06;95412.47;5021474;28;20217;-65
2021/07/28 02:02:55;;;;;;;18.50;9.93;;;;;;;25.73;42.96;95407.47;5033515;28;20683;-63
2021/07/28 02:05:22;;;;;;;17.37;9.53;;;;;;;25.72;43.10;95413.16;5032200;28;20571;-63
2021/07/28 02:07:49;;;;;;;19.00;9.93;;;;;;;25.48;43.34;95407.81;5016402;28;20293;-63
2021/07/28 02:10:16;;;;;;;15.33;10.30;;;;;;;25.39;43.32;95401.78;5017966;28;20212;-63
2021/07/28 02:12:43;;;;;;;17.27;10.37;;;;;;;25.57;42.78;95398.53;5029521;28;20280;-64
2021/07/28 02:15:10;;;;;;;17.97;10.33;;;;;;;25.86;42.80;95402.84;5009748;28;20304;-63
2021/07/28 02:17:37;;;;;;;15.33;9.63;;;;;;;25.94;42.94;95408.09;5022633;28;20587;-63
2021/07/28 02:20:04;;;;;;;15.33;9.77;;;;;;;25.96;42.80;95403.16;5030436;28;20217;-62
2021/07/28 02:22:31;;;;;;;17.60;10.20;;;;;;;25.47;43.29;95398.22;5021424;28;20193;-63
2021/07/28 02:24:58;;;;;;;20.37;9.73;;;;;;;25.53;43.27;95399.56;5028382;28;20189;-64
2021/07/28 02:27:25;;;;;;;21.17;10.77;;;;;;;25.60;43.22;95402.47;5025866;28;20280;-63
2021/07/28 02:29:52;;;;;;;20.50;10.43;;;;;;;25.54;43.96;95401.91;5028229;28;20276;-63
2021/07/28 02:32:19;;;;;;;18.20;10.30;;;;;;;25.54;43.84;95399.22;5030690;28;20679;-62
2021/07/28 02:34:46;;;;;;;24.13;10.90;;;;;;;25.56;43.87;95405.03;5029982;28;20278;-62
2021/07/28 02:37:13;;;;;;;17.23;10.07;;;;;;;25.35;44.61;95400.84;5030080;28;20203;-63
2021/07/28 02:39:40;;;;;;;22.60;10.93;;;;;;;25.54;44.35;95404.59;5030036;28;20196;-63
2021/07/28 02:42:07;;;;;;;16.43;10.33;;;;;;;25.54;44.07;95403.78;5016734;28;20235;-63
2021/07/28 02:44:34;;;;;;;19.57;9.77;;;;;;;25.52;44.38;95398.78;5029957;28;20300;-64
2021/07/28 02:47:01;;;;;;;18.60;9.97;;;;;;;25.47;44.08;95408.97;5030127;28;20272;-64
2021/07/28 02:49:28;;;;;;;16.80;10.17;;;;;;;25.44;44.48;95414.97;5030018;28;20224;-65
2021/07/28 02:51:54;;;;;;;17.90;9.63;;;;;;;25.33;44.36;95413.84;5030128;28;20671;-63
2021/07/28 02:54:23;;;;;;;24.47;9.97;;;;;;;25.33;44.42;95413.84;5029679;28;20205;-63
2021/07/28 02:56:50;;;;;;;17.00;10.30;;;;;;;25.20;44.95;95414.97;5020956;28;20198;-63
2021/07/28 02:59:17;;;;;;;18.60;10.30;;;;;;;25.30;45.02;95420.66;5025426;28;20669;-63
2021/07/28 03:01:44;;;;;;;18.83;10.50;;;;;;;25.29;44.84;95421.00;5022817;28;20221;-64
2021/07/28 03:04:11;;;;;;;21.23;10.30;;;;;;;25.32;44.93;95417.63;5010685;28;20550;-62
2021/07/28 03:06:38;;;;;;;21.27;10.73;;;;;;;25.34;45.06;95418.09;5028777;28;20196;-65
2021/07/28 03:09:05;;;;;;;22.97;10.63;;;;;;;25.35;45.09;95416.97;5028763;28;20197;-63
2021/07/28 03:11:32;;;;;;;22.63;12.23;;;;;;;25.18;45.38;95422.56;5026067;28;20343;-65
2021/07/28 03:13:59;;;;;;;21.43;11.17;;;;;;;25.14;45.84;95422.44;5020158;28;20316;-64
2021/07/28 03:16:26;;;;;;;21.67;11.83;;;;;;;25.24;46.00;95422.00;5015621;28;20194;-62
2021/07/28 03:18:53;;;;;;;19.47;11.87;;;;;;;25.21;45.73;95421.88;5029854;28;20200;-63
2021/07/28 03:21:20;;;;;;;18.10;10.77;;;;;;;25.08;46.18;95408.47;5029429;28;20304;-63
2021/07/28 03:23:47;;;;;;;16.57;13.23;;;;;;;25.16;47.05;95422.09;5030527;28;20560;-63
2021/07/28 03:26:15;;;;;;;15.70;12.50;;;;;;;25.15;46.76;95426.69;5030843;28;20731;-64
2021/07/28 03:28:42;;;;;;;22.73;13.13;;;;;;;25.02;47.71;95431.25;5033671;28;20715;-65
2021/07/28 03:31:09;;;;;;;22.80;12.30;;;;;;;25.01;47.50;95424.34;5033851;28;20609;-64
2021/07/28 03:33:36;;;;;;;20.03;11.97;;;;;;;24.93;47.42;95430.56;5034019;28;20212;-64
2021/07/28 03:36:03;;;;;;;24.70;12.10;;;;;;;24.96;47.62;95424.53;5033158;28;20216;-64
2021/07/28 03:38:30;;;;;;;19.03;11.60;;;;;;;24.93;47.73;95424.41;5033631;28;20641;-63
2021/07/28 03:40:57;;;;;;;19.80;12.03;;;;;;;24.94;47.76;95428.69;5033259;28;20221;-64
2021/07/28 03:43:24;;;;;;;21.83;12.53;;;;;;;25.00;47.79;95422.75;5033284;28;20239;-63
2021/07/28 03:45:51;;;;;;;18.47;11.63;;;;;;;25.09;47.87;95426.13;5032926;28;20201;-63
2021/07/28 03:48:18;;;;;;;18.27;11.10;;;;;;;24.55;48.92;95427.31;5032489;28;20204;-63
2021/07/28 03:50:45;;;;;;;18.70;11.70;;;;;;;24.82;48.91;95423.28;5026938;28;20233;-65
2021/07/28 03:53:12;;;;;;;21.27;13.10;;;;;;;24.75;48.28;95421.16;5020224;28;20201;-64
2021/07/28 03:55:40;;;;;;;19.27;12.80;;;;;;;24.71;48.96;95425.59;5033083;28;20213;-63
2021/07/28 03:58:07;;;;;;;27.20;14.13;;;;;;;24.32;49.77;95422.66;5027908;28;20197;-64
2021/07/28 04:00:34;;;;;;;25.70;12.77;;;;;;;24.58;49.29;95423.97;5032841;28;20227;-64
2021/07/28 04:03:01;;;;;;;22.10;12.63;;;;;;;24.76;49.34;95428.06;5033944;28;20190;-65
2021/07/28 04:05:29;;;;;;;24.70;12.83;;;;;;;24.67;49.82;95429.25;5032265;28;20497;-65
2021/07/28 04:07:57;;;;;;;25.60;12.40;;;;;;;24.83;49.78;95432.91;5031501;28;20197;-64
2021/07/28 04:10:24;;;;;;;21.67;13.63;;;;;;;24.94;49.47;95440.16;5029501;28;20316;-64
2021/07/28 04:12:51;;;;;;;21.17;13.17;;;;;;;24.96;49.36;95437.94;5033164;28;20220;-64
2021/07/28 04:15:18;;;;;;;26.30;14.40;;;;;;;25.01;49.34;95435.06;5034348;28;20284;-63
2021/07/28 04:17:45;;;;;;;33.97;13.60;;;;;;;24.97;50.08;95444.88;5033579;28;20207;-64
2021/07/28 04:20:14;;;;;;;30.20;13.47;;;;;;;25.06;49.99;95439.41;5033104;28;20276;-63
2021/07/28 04:22:42;;;;;;;23.27;14.70;;;;;;;25.14;50.16;95435.84;5033445;28;20193;-62
2021/07/28 04:25:10;;;;;;;24.50;14.60;;;;;;;24.84;51.30;95440.59;5032265;28;20197;-63
2021/07/28 04:27:37;;;;;;;25.57;14.50;;;;;;;24.78;51.67;95441.91;5033196;28;20201;-63
2021/07/28 04:30:05;;;;;;;25.40;14.27;;;;;;;24.84;51.79;95440.59;5031717;28;20193;-64
2021/07/28 04:32:33;;;;;;;28.30;14.53;;;;;;;24.76;50.16;95433.44;5032680;28;20193;-65
2021/07/28 04:35:00;;;;;;;24.07;14.30;;;;;;;24.98;49.84;95441.06;5032401;28;20721;-66
2021/07/28 04:37:27;;;;;;;32.97;16.03;;;;;;;24.98;50.43;95441.06;5031532;28;20292;-64
2021/07/28 04:39:56;;;;;;;37.40;16.00;;;;;;;24.85;50.77;95441.41;5031053;28;20619;-65
2021/07/28 04:42:23;;;;;;;29.87;15.40;;;;;;;24.36;51.46;95435.06;5031717;28;20324;-65
2021/07/28 04:44:50;;;;;;;24.90;14.50;;;;;;;24.76;50.69;95427.31;5032044;28;20201;-66
2021/07/28 04:47:17;;;;;;;21.73;14.67;;;;;;;24.90;50.80;95427.78;5031351;28;20193;-63
2021/07/28 04:49:44;;;;;;;37.20;28.33;;;;;;;25.09;51.11;95436.06;5031281;28;20189;-64
2021/07/28 04:52:13;;;;;;;58.03;44.57;;;;;;;25.13;50.60;95430.84;5018204;28;20300;-62
2021/07/28 04:54:40;;;;;;;49.60;35.00;;;;;;;25.25;50.32;95433.50;5030070;28;20705;-63
2021/07/28 04:57:07;;;;;;;26.53;15.30;;;;;;;25.20;49.94;95429.13;5031531;28;20671;-64
2021/07/28 04:59:33;;;;;;;28.20;15.83;;;;;;;25.24;50.21;95426.56;5017976;28;20201;-63
2021/07/28 05:02:00;;;;;;;29.00;15.10;;;;;;;25.29;49.99;95423.69;5032011;28;20683;-63
2021/07/28 05:04:28;;;;;;;35.27;15.80;;;;;;;25.36;50.85;95429.28;5031556;28;20197;-64
2021/07/28 05:06:54;;;;;;;21.80;14.83;;;;;;;25.37;50.88;95425.47;5031787;28;20288;-62
2021/07/28 05:09:21;;;;;;;23.67;15.63;;;;;;;25.36;50.32;95429.28;5032057;28;20743;-64
2021/07/28 05:11:48;;;;;;;24.03;15.17;;;;;;;25.46;50.14;95418.91;5018013;28;20211;-63
2021/07/28 05:14:15;;;;;;;49.90;37.97;;;;;;;25.59;49.90;95422.34;5032196;28;20205;-63
2021/07/28 05:16:42;;;;;;;35.67;19.47;;;;;;;25.68;49.21;95426.47;5031950;28;20185;-63
2021/07/28 05:19:09;;;;;;;30.47;18.57;;;;;;;25.75;49.53;95420.53;5031536;28;20208;-63
2021/07/28 05:21:37;;;;;;;33.53;18.20;;;;;;;25.57;50.93;95419.22;5031273;28;20228;-63
2021/07/28 05:24:04;;;;;;;28.83;17.07;;;;;;;25.74;50.25;95417.09;5029615;28;20233;-63
2021/07/28 05:26:31;;;;;;;26.57;17.20;;;;;;;25.65;50.56;95423.69;5029963;28;20209;-64
2021/07/28 05:28:58;;;;;;;29.90;16.67;;;;;;;25.77;50.14;95412.94;5019171;28;20287;-64
2021/07/28 05:31:25;;;;;;;32.03;16.30;;;;;;;25.78;49.74;95414.50;5031311;28;20205;-63
2021/07/28 05:33:51;;;;;;;27.40;17.47;;;;;;;25.72;50.32;95418.53;5031839;28;20204;-62
2021/07/28 05:36:18;;;;;;;30.50;17.00;;;;;;;25.92;49.83;95423.75;5030724;28;20208;-63
2021/07/28 05:38:45;;;;;;;26.63;17.50;;;;;;;26.08;48.99;95418.47;5031226;28;20194;-64
2021/07/28 05:41:12;;;;;;;28.97;17.57;;;;;;;26.01;48.85;95418.25;5030926;28;20240;-63
2021/07/28 05:43:39;;;;;;;25.77;16.80;;;;;;;25.81;49.73;95414.63;5030946;28;20245;-62
2021/07/28 05:46:06;;;;;;;28.10;16.00;;;;;;;25.89;49.18;95412.91;5030810;28;20196;-63
2021/07/28 05:48:36;;;;;;;23.90;16.57;;;;;;;26.08;48.70;95423.84;5030627;28;20713;-62
2021/07/28 05:51:04;;;;;;;25.73;17.13;;;;;;;25.92;49.19;95421.06;5030280;28;20660;-64
2021/07/28 05:53:32;;;;;;;25.33;16.47;;;;;;;26.13;48.43;95420.91;5031190;28;20208;-62
2021/07/28 05:55:58;;;;;;;25.90;16.20;;;;;;;26.14;48.87;95417.13;5030384;28;20190;-63
2021/07/28 05:58:25;;;;;;;25.20;15.63;;;;;;;26.33;48.06;95409.22;5030664;28;20194;-64
2021/07/28 06:00:52;;;;;;;24.23;15.83;;;;;;;26.44;47.88;95410.28;5030955;28;20259;-62
2021/07/28 06:03:19;;;;;;;28.87;16.27;;;;;;;26.33;47.93;95417.28;5016063;28;20263;-63
2021/07/28 06:05:46;;;;;;;27.53;15.87;;;;;;;26.52;47.13;95416.63;5030614;28;20630;-63
2021/07/28 06:08:14;;;;;;;23.93;14.90;;;;;;;26.31;48.86;95416.84;5025899;28;20205;-64
2021/07/28 06:10:40;;;;;;;27.70;16.13;;;;;;;26.45;48.10;95422.59;5010662;28;20194;-63
2021/07/28 06:13:07;;;;;;;24.40;17.27;;;;;;;26.44;46.97;95415.66;5027507;28;20205;-63
2021/07/28 06:15:34;;;;;;;26.73;16.00;;;;;;;26.70;46.36;95397.19;5022044;28;20557;-64
2021/07/28 06:18:01;;;;;;;26.47;14.83;;;;;;;26.69;47.83;95411.78;5026146;28;20200;-63
2021/07/28 06:20:28;;;;;;;28.93;16.13;;;;;;;26.65;46.73;95405.50;5022730;28;20186;-64
2021/07/28 06:22:55;;;;;;;25.20;15.23;;;;;;;26.97;47.30;95401.72;5024285;28;20212;-63
2021/07/28 06:25:22;;;;;;;29.43;14.93;;;;;;;27.13;45.95;95414.41;5030609;28;20632;-66
2021/07/28 06:27:50;;;;;;;38.33;15.83;;;;;;;27.03;46.22;95410.31;5031272;28;20212;-63
2021/07/28 06:30:17;;;;;;;27.33;15.17;;;;;;;26.97;45.12;95406.31;5029716;28;20232;-63
2021/07/28 06:32:44;;;;;;;26.87;15.30;;;;;;;27.35;44.23;95405.75;5030586;28;20192;-64
2021/07/28 06:35:16;;;;;;;23.37;15.23;;;;;;;27.18;45.08;95406.06;5030141;28;20189;-63
2021/07/28 06:37:43;;;;;;;28.77;14.97;;;;;;;27.49;45.31;95414.94;5030473;28;20296;-62
2021/07/28 06:40:10;;;;;;;32.97;14.70;;;;;;;27.78;44.74;95410.97;5030022;28;20197;-63
2021/07/28 06:42:37;;;;;;;30.10;15.07;;;;;;;27.78;44.54;95408.28;5030126;28;20244;-63
2021/07/28 06:45:05;;;;;;;30.20;15.50;;;;;;;27.65;44.26;95414.91;5030225;28;20201;-64
2021/07/28 06:47:33;;;;;;;25.17;15.33;;;;;;;27.51;45.97;95409.19;5030623;28;20244;-62
2021/07/28 06:50:00;;;;;;;27.97;15.07;;;;;;;27.84;44.33;95404.97;5029995;28;20209;-62
2021/07/28 06:52:27;;;;;;;28.03;15.90;;;;;;;27.93;43.90;95405.56;5030194;28;20258;-63
2021/07/28 06:54:54;;;;;;;28.03;15.50;;;;;;;27.98;43.65;95407.19;5024227;28;20198;-64
2021/07/28 06:57:20;;;;;;;31.23;15.67;;;;;;;28.29;43.54;95407.06;5024477;28;20216;-63
2021/07/28 06:59:47;;;;;;;32.40;16.03;;;;;;;28.49;42.91;95397.84;5025995;28;20193;-62
2021/07/28 07:02:19;;;;;;;22.57;14.50;;;;;;;28.59;42.07;95402.69;5022765;28;20213;-61
2021/07/28 07:04:46;;;;;;;28.00;15.00;;;;;;;28.57;41.92;95407.66;5029356;28;20192;-65
2021/07/28 07:07:13;;;;;;;39.40;15.70;;;;;;;28.57;41.69;95404.19;5030369;28;20224;-63
2021/07/28 07:09:40;;;;;;;29.10;15.53;;;;;;;28.32;42.93;95400.97;5015686;28;20201;-65
2021/07/28 07:12:07;;;;;;;32.37;16.07;;;;;;;28.30;43.59;95397.88;5030290;28;20202;-65
2021/07/28 07:14:35;;;;;;;27.20;14.30;;;;;;;28.58;42.65;95395.72;5030527;28;20208;-62
2021/07/28 07:17:03;;;;;;;27.03;13.93;;;;;;;28.57;42.04;95394.19;5031238;28;20201;-63
2021/07/28 07:19:30;;;;;;;29.97;14.43;;;;;;;28.56;40.83;95376.44;5018682;28;20204;-62
2021/07/28 07:21:57;;;;;;;29.30;13.97;;;;;;;28.98;40.59;95395.28;5011236;28;20610;-64
2021/07/28 07:24:25;;;;;;;27.07;15.27;;;;;;;29.03;40.35;95386.91;5012007;28;20201;-63
2021/07/28 07:26:52;;;;;;;32.37;14.20;;;;;;;29.09;40.83;95390.06;5027895;28;20236;-63
2021/07/28 07:29:24;;;;;;;25.17;14.27;;;;;;;29.27;39.69;95396.56;5029863;28;20276;-62
2021/07/28 07:31:51;;;;;;;26.37;14.37;;;;;;;29.29;40.30;95381.56;5029157;28;20208;-62
2021/07/28 07:34:18;;;;;;;26.20;13.90;;;;;;;29.52;39.32;95386.94;5030287;28;20239;-62
2021/07/28 07:36:44;;;;;;;24.93;14.37;;;;;;;29.61;38.22;95395.53;5025337;28;20209;-63
2021/07/28 07:39:12;;;;;;;24.90;16.70;;;;;;;29.69;38.11;95391.81;5020743;28;20205;-62
2021/07/28 07:41:39;;;;;;;29.57;15.93;;;;;;;29.33;39.56;95378.91;5030090;28;20221;-63
2021/07/28 07:44:06;;;;;;;26.33;16.37;;;;;;;29.58;39.17;95391.63;5021293;28;20799;-62
2021/07/28 07:46:33;;;;;;;26.23;13.20;;;;;;;29.66;39.58;95387.13;5023897;28;20209;-61
2021/07/28 07:49:00;;;;;;;26.93;12.37;;;;;;;29.50;39.09;95389.22;5029344;28;20209;-62
2021/07/28 07:51:28;;;;;;;29.40;17.63;;;;;;;29.70;39.18;95388.78;5022784;28;20575;-64
2021/07/28 07:53:56;;;;;;;27.73;14.93;;;;;;;29.86;38.43;95388.59;5022282;28;20209;-62
2021/07/28 07:56:22;;;;;;;37.83;18.40;;;;;;;30.32;37.07;95384.59;5028696;28;20189;-64
2021/07/28 07:58:50;;;;;;;26.77;12.63;;;;;;;30.13;35.65;95370.41;5030022;28;20209;-62
2021/07/28 08:01:17;;;;;;;23.37;13.37;;;;;;;30.21;36.54;95375.53;5028440;28;20189;-65
2021/07/28 08:03:45;;;;;;;22.47;13.30;;;;;;;30.45;36.24;95380.50;5029419;28;20197;-63
2021/07/28 08:06:11;;;;;;;24.00;11.90;;;;;;;30.28;36.34;95375.66;5027509;28;20209;-64
2021/07/28 08:08:39;;;;;;;26.67;12.00;;;;;;;30.31;36.74;95374.13;5017273;28;20205;-63
2021/07/28 08:11:13;;;;;;;18.60;10.90;;;;;;;30.50;35.39;95382.84;5014894;28;20206;-63
2021/07/28 08:13:40;;;;;;;22.23;13.30;;;;;;;30.37;36.54;95378.84;5020650;28;20201;-63
2021/07/28 08:16:18;;;;;;;19.97;11.63;;;;;;;30.40;34.06;95369.22;5032573;28;20208;-64
2021/07/28 08:18:46;;;;;;;22.30;11.83;;;;;;;30.63;35.10;95365.22;5020424;28;20722;-63
2021/07/28 08:21:14;;;;;;;22.07;11.00;;;;;;;30.55;33.60;95368.19;5032880;28;20216;-61
2021/07/28 08:23:45;;;;;;;22.37;11.47;;;;;;;30.68;33.93;95356.75;5032549;28;20220;-61
2021/07/28 08:26:13;;;;;;;21.33;11.57;;;;;;;30.78;33.17;95345.25;5032770;28;20198;-62
2021/07/28 08:28:42;;;;;;;18.80;10.97;;;;;;;30.94;33.21;95353.16;5027521;28;20206;-63
2021/07/28 08:31:09;;;;;;;24.53;11.57;;;;;;;31.17;34.17;95351.03;5022634;28;20205;-63
2021/07/28 08:33:36;;;;;;;22.70;11.77;;;;;;;31.26;33.39;95356.91;5032488;28;20251;-63
2021/07/28 08:36:03;;;;;;;18.47;11.03;;;;;;;31.47;33.78;95348.97;5031066;28;20205;-63
2021/07/28 08:38:31;;;;;;;24.87;12.20;;;;;;;31.51;33.22;95354.41;5032197;28;20441;-62
2021/07/28 08:41:03;;;;;;;29.10;11.67;;;;;;;31.35;34.41;95359.31;5032473;28;20778;-63
2021/07/28 08:43:37;;;;;;;25.73;12.67;;;;;;;31.50;34.10;95352.84;5032266;28;20246;-62
2021/07/28 08:46:06;;;;;;;18.57;10.77;;;;;;;31.56;33.14;95352.13;5032656;28;20197;-62
2021/07/28 08:48:33;;;;;;;21.33;11.63;;;;;;;31.74;34.11;95352.22;5018306;28;20193;-61
2021/07/28 08:51:03;;;;;;;27.00;12.30;;;;;;;31.95;32.90;95351.59;5029445;28;20273;-62
2021/07/28 08:53:31;;;;;;;53.20;44.57;;;;;;;31.99;32.72;95345.00;5021846;28;20588;-62
2021/07/28 08:56:00;;;;;;;25.37;15.83;;;;;;;31.94;31.77;95342.66;5017573;28;20553;-63
2021/07/28 08:58:29;;;;;;;30.47;14.83;;;;;;;31.92;32.29;95334.13;5032221;28;20197;-62
2021/07/28 09:00:56;;;;;;;22.43;11.53;;;;;;;32.05;31.42;95340.78;5030345;28;20193;-62
2021/07/28 09:03:24;;;;;;;17.60;10.60;;;;;;;32.07;31.81;95333.03;5032174;28;20319;-63
2021/07/28 09:05:54;;;;;;;21.80;11.17;;;;;;;32.29;31.82;95345.53;5018749;28;20256;-61
2021/07/28 09:08:35;;;;;;;25.13;9.90;;;;;;;32.38;31.26;95340.50;5032083;28;20221;-62
2021/07/28 09:11:07;;;;;;;19.43;10.17;;;;;;;32.31;31.06;95335.06;5031795;28;20219;-62
2021/07/28 09:13:38;;;;;;;19.43;10.70;;;;;;;32.34;31.78;95336.22;5012359;28;20300;-62
2021/07/28 09:16:11;;;;;;;31.83;10.70;;;;;;;32.34;32.03;95341.66;5024891;28;20204;-62
2021/07/28 09:18:48;;;;;;;30.53;10.17;;;;;;;32.60;31.21;95338.66;5032046;28;20310;-62
2021/07/28 09:21:31;;;;;;;19.70;9.90;;;;;;;32.72;31.98;95330.13;5031697;28;20308;-62
2021/07/28 09:24:14;;;;;;;21.70;9.70;;;;;;;32.88;31.91;95332.50;5030980;28;20284;-61
2021/07/28 09:26:51;;;;;;;21.17;9.30;;;;;;;33.06;30.06;95327.88;5014563;28;20202;-62
2021/07/28 09:29:21;;;;;;;23.30;8.97;;;;;;;32.79;31.04;95320.06;5021734;28;20207;-62
2021/07/28 09:31:52;;;;;;;22.50;10.13;;;;;;;32.88;30.10;95316.97;5030775;28;20193;-62
2021/07/28 09:34:23;;;;;;;22.40;10.93;;;;;;;32.99;30.47;95322.44;5031655;28;20204;-63
2021/07/28 09:36:58;;;;;;;27.27;10.30;;;;;;;33.00;30.32;95318.56;5033744;28;20277;-63
2021/07/28 09:39:27;;;;;;;29.03;10.67;;;;;;;33.06;30.75;95311.56;5033148;28;20197;-63
2021/07/28 09:41:57;;;;;;;18.13;9.90;;;;;;;33.34;30.02;95312.31;5031349;28;20220;-62
2021/07/28 09:44:27;;;;;;;19.57;8.97;;;;;;;33.38;29.49;95312.31;5032237;28;20193;-62
2021/07/28 09:47:05;;;;;;;27.30;9.80;;;;;;;33.54;29.50;95304.56;5031590;28;20223;-63
2021/07/28 09:49:32;;;;;;;29.27;9.97;;;;;;;33.67;29.40;95308.41;5031225;28;20228;-64
2021/07/28 09:52:14;;;;;;;25.60;9.60;;;;;;;33.87;28.70;95312.22;5031957;28;20197;-65
2021/07/28 09:54:41;;;;;;;19.27;9.17;;;;;;;34.02;28.48;95300.16;5018190;28;20302;-62
2021/07/28 09:57:11;;;;;;;23.40;9.43;;;;;;;34.19;28.11;95298.53;5022169;28;20200;-63
2021/07/28 09:59:39;;;;;;;22.33;9.53;;;;;;;33.92;27.77;95309.13;5012326;28;20229;-62
2021/07/28 10:02:08;;;;;;;20.93;8.90;;;;;;;33.92;27.34;95292.78;5021842;28;20221;-63
2021/07/28 10:04:37;;;;;;;18.83;8.97;;;;;;;34.02;28.35;95285.78;5031110;28;20205;-63
2021/07/28 10:07:04;;;;;;;18.63;9.53;;;;;;;34.21;29.06;95293.47;5031370;28;20228;-63
2021/07/28 10:09:38;;;;;;;20.30;10.00;;;;;;;34.27;28.33;95286.44;5015812;28;20208;-63
2021/07/28 10:12:06;;;;;;;21.37;9.87;;;;;;;34.38;27.54;95279.75;5019365;28;20279;-63
2021/07/28 10:14:35;;;;;;;20.03;9.60;;;;;;;34.18;27.42;95295.03;5015205;28;20198;-62
2021/07/28 10:17:03;;;;;;;18.53;9.07;;;;;;;34.20;27.66;95287.25;5030884;28;20663;-62
2021/07/28 10:19:32;;;;;;;22.40;10.07;;;;;;;34.54;27.67;95284.75;5030849;28;20215;-64
2021/07/28 10:22:00;;;;;;;22.43;9.80;;;;;;;34.88;27.27;95276.72;5016727;28;20552;-65
2021/07/28 10:24:27;;;;;;;20.67;9.47;;;;;;;35.09;27.18;95282.03;5019031;28;20244;-67
2021/07/28 10:26:57;;;;;;;21.00;9.40;;;;;;;35.17;26.32;95276.09;5014635;28;20747;-63
2021/07/28 10:29:30;;;;;;;22.30;9.83;;;;;;;35.26;26.25;95281.06;5030850;28;20208;-66
2021/07/28 10:31:57;;;;;;;21.47;9.80;;;;;;;35.16;26.46;95277.28;5027292;28;20205;-62
2021/07/28 10:34:24;;;;;;;20.93;9.60;;;;;;;35.21;25.76;95276.06;5023511;28;20228;-64
2021/07/28 10:36:53;;;;;;;19.73;9.10;;;;;;;35.14;25.77;95270.69;5029588;28;20201;-64
2021/07/28 10:39:37;;;;;;;17.93;8.77;;;;;;;35.13;26.87;95266.44;5030728;28;20283;-64
2021/07/28 10:42:05;;;;;;;23.53;9.83;;;;;;;35.42;26.01;95260.31;5030567;28;20232;-64
2021/07/28 10:45:02;;;;;;;16.93;8.63;;;;;;;35.49;25.18;95256.75;5030531;28;20291;-66
2021/07/28 10:47:50;;;;;;;21.67;9.60;;;;;;;35.75;24.75;95247.84;5019294;28;20256;-66
2021/07/28 10:50:20;;;;;;;19.33;8.83;;;;;;;35.26;24.74;95251.09;5031670;28;20228;-63
2021/07/28 10:52:48;;;;;;;24.13;8.70;;;;;;;35.17;24.86;95256.25;5016769;28;20622;-63
2021/07/28 10:55:18;;;;;;;21.27;9.30;;;;;;;35.16;25.21;95262.88;5019540;28;20202;-63
2021/07/28 10:57:54;;;;;;;22.17;8.97;;;;;;;35.55;24.50;95249.66;5027174;28;20224;-62
2021/07/28 11:00:39;;;;;;;25.60;8.93;;;;;;;35.83;25.01;95249.31;5029893;28;20257;-62
2021/07/28 11:03:14;;;;;;;21.00;9.87;;;;;;;36.07;24.12;95248.28;5029935;28;20595;-63
2021/07/28 11:05:44;;;;;;;27.57;9.30;;;;;;;36.01;24.07;95244.44;5029877;28;20203;-63
2021/07/28 11:08:20;;;;;;;25.03;9.97;;;;;;;36.34;24.37;95246.34;5030131;28;20425;-64
2021/07/28 11:10:55;;;;;;;18.47;8.77;;;;;;;36.47;24.18;95249.28;5018455;28;20288;-64
2021/07/28 11:13:24;;;;;;;23.73;8.53;;;;;;;36.48;23.74;95240.69;5014884;28;20228;-63
2021/07/28 11:15:59;;;;;;;23.30;9.57;;;;;;;36.91;23.78;95240.03;5018281;28;20200;-62
2021/07/28 11:18:35;;;;;;;21.90;9.23;;;;;;;36.70;23.70;95241.13;5014549;28;20689;-62
2021/07/28 11:21:14;;;;;;;22.37;9.20;;;;;;;36.53;23.40;95242.94;5017521;28;20293;-63
2021/07/28 11:23:45;;;;;;;24.03;8.17;;;;;;;36.79;23.72;95227.72;5015980;28;20243;-63
2021/07/28 11:26:16;;;;;;;21.67;9.57;;;;;;;37.34;22.31;95235.41;5029789;28;20193;-62
2021/07/28 11:28:44;;;;;;;25.60;8.90;;;;;;;37.15;22.20;95233.38;5024666;28;20201;-62